Time;durP1;ratioP1;P1;durP2;ratioP2;P2;SDS_P1;SDS_P2;PMS_P1;PMS_P2;Temp;Humidity;BMP_temperature;BMP_pressure;BME280_temperature;BME280_humidity;BME280_pressure;Samples;Min_cycle;Max_cycle;Signal;HPM_P1;HPM_P2
2021/09/14 00:01:07;;;;;;;6.78;3.67;;;14.50;86.30;;;;;;6276354;22;20015;-75
2021/09/14 00:03:41;;;;;;;6.50;3.42;;;14.50;86.20;;;;;;6309949;22;20019;-75
2021/09/14 00:06:08;;;;;;;6.97;3.35;;;14.40;86.40;;;;;;6309805;22;20034;-74
2021/09/14 00:08:36;;;;;;;5.28;3.20;;;14.40;86.60;;;;;;6307368;22;20408;-75
2021/09/14 00:11:03;;;;;;;5.90;3.25;;;14.40;86.70;;;;;;6308567;22;20058;-74
2021/09/14 00:13:34;;;;;;;7.00;3.95;;;14.50;86.50;;;;;;6311304;22;20019;-74
2021/09/14 00:16:02;;;;;;;7.07;3.22;;;14.30;86.70;;;;;;6312877;22;20039;-74
2021/09/14 00:18:29;;;;;;;7.30;3.75;;;14.30;86.80;;;;;;6283880;22;20027;-74
2021/09/14 00:20:56;;;;;;;7.60;3.50;;;14.30;86.80;;;;;;6311016;22;20015;-74
2021/09/14 00:23:24;;;;;;;8.80;4.00;;;14.30;86.60;;;;;;6284315;22;20053;-74
2021/09/14 00:25:51;;;;;;;7.40;4.13;;;14.40;86.60;;;;;;6314428;22;20034;-74
2021/09/14 00:28:19;;;;;;;6.10;3.35;;;14.40;86.70;;;;;;6282557;22;20049;-74
2021/09/14 00:30:47;;;;;;;6.15;3.13;;;14.30;86.90;;;;;;6287143;22;20230;-75
2021/09/14 00:33:19;;;;;;;9.82;3.83;;;14.30;86.80;;;;;;6314324;22;20092;-74
2021/09/14 00:35:46;;;;;;;4.88;3.00;;;14.30;86.70;;;;;;6312825;22;20039;-74
2021/09/14 00:38:16;;;;;;;10.68;3.75;;;14.30;86.70;;;;;;6286185;22;20015;-75
2021/09/14 00:40:44;;;;;;;;;;;14.30;86.60;;;;;;6313379;22;20034;-74
2021/09/14 00:43:19;;;;;;;5.40;2.70;;;14.30;86.80;;;;;;6314681;22;19922;-74
2021/09/14 00:45:48;;;;;;;5.93;3.22;;;14.20;86.80;;;;;;6286374;22;20023;-74
2021/09/14 00:48:16;;;;;;;7.65;5.20;;;14.20;87.00;;;;;;6285780;22;20026;-75
2021/09/14 00:50:45;;;;;;;6.13;3.60;;;14.20;87.00;;;;;;6311295;22;20027;-74
2021/09/14 00:53:13;;;;;;;8.52;3.67;;;14.20;86.90;;;;;;6285632;22;20038;-73
2021/09/14 00:55:42;;;;;;;6.47;3.70;;;14.30;86.90;;;;;;6313441;22;20034;-75
2021/09/14 00:58:09;;;;;;;7.05;3.42;;;14.20;87.10;;;;;;6313996;22;20065;-75
2021/09/14 01:00:36;;;;;;;5.53;3.38;;;14.20;87.10;;;;;;6279840;22;20030;-75
2021/09/14 01:03:05;;;;;;;9.73;3.97;;;14.20;87.10;;;;;;6312606;22;20034;-74
2021/09/14 01:05:32;;;;;;;7.72;3.42;;;14.30;87.10;;;;;;6311292;22;20023;-74
2021/09/14 01:08:01;;;;;;;6.90;3.70;;;14.40;86.80;;;;;;6312545;22;20382;-74
2021/09/14 01:10:33;;;;;;;7.80;3.50;;;14.40;86.70;;;;;;6282656;22;20381;-74
2021/09/14 01:13:00;;;;;;;6.22;3.42;;;14.30;86.60;;;;;;6285059;22;20034;-74
2021/09/14 01:15:45;;;;;;;6.26;2.79;;;14.40;86.90;;;;;;2792482;22;10150020;-74
2021/09/14 01:18:14;;;;;;;7.32;3.90;;;14.30;87.00;;;;;;5414525;22;10000855;-74
2021/09/14 01:20:42;;;;;;;5.60;3.33;;;14.40;86.80;;;;;;6311324;22;20027;-74
2021/09/14 01:23:11;;;;;;;6.03;3.80;;;14.30;86.80;;;;;;6284932;22;20023;-75
2021/09/14 01:25:38;;;;;;;8.00;3.92;;;14.20;87.00;;;;;;6286066;22;20030;-74
2021/09/14 01:28:08;;;;;;;6.97;3.83;;;14.20;87.10;;;;;;6285629;22;20023;-74
2021/09/14 01:30:38;;;;;;;6.57;3.63;;;14.10;87.20;;;;;;6286480;22;20226;-74
2021/09/14 01:33:07;;;;;;;6.75;3.50;;;14.20;87.40;;;;;;6283901;22;20283;-75
2021/09/14 01:35:40;;;;;;;9.25;4.00;;;14.10;87.60;;;;;;6311672;22;20023;-74
2021/09/14 01:38:13;;;;;;;6.82;3.50;;;14.00;87.70;;;;;;6285144;22;20031;-74
2021/09/14 01:40:46;;;;;;;7.15;3.83;;;14.00;87.90;;;;;;6283214;22;20064;-74
2021/09/14 01:43:14;;;;;;;5.82;3.50;;;13.90;87.90;;;;;;6285084;22;20057;-74
2021/09/14 01:45:41;;;;;;;8.30;4.07;;;13.90;88.10;;;;;;6277954;22;20117;-75
2021/09/14 01:48:15;;;;;;;7.88;3.90;;;13.80;88.20;;;;;;6279409;22;20030;-75
2021/09/14 01:50:43;;;;;;;5.28;3.05;;;13.90;88.30;;;;;;6278515;22;20072;-75
2021/09/14 01:53:12;;;;;;;7.70;3.20;;;13.70;88.30;;;;;;6279772;22;20023;-75
2021/09/14 01:55:41;;;;;;;7.43;3.37;;;13.80;88.40;;;;;;6280079;22;20050;-75
2021/09/14 01:58:10;;;;;;;6.23;3.57;;;13.90;88.40;;;;;;6280369;22;20026;-74
2021/09/14 02:00:44;;;;;;;9.75;3.47;;;13.80;88.40;;;;;;6276823;22;20020;-75
2021/09/14 02:03:24;;;;;;;7.88;3.80;;;13.90;88.20;;;;;;6280746;22;20016;-75
2021/09/14 02:06:17;;;;;;;5.22;3.05;;;13.90;88.10;;;;;;6277569;22;20340;-75
2021/09/14 02:38:15;;;;;;;8.77;3.78;;;13.60;88.90;;;;;;6279973;22;20015;-74
2021/09/14 02:43:03;;;;;;;7.68;3.97;;;13.60;88.90;;;;;;6132940;23;20052;-75
2021/09/14 02:56:41;;;;;;;7.88;4.00;;;13.60;89.00;;;;;;6309862;22;20242;-75
2021/09/14 02:59:09;;;;;;;6.45;3.70;;;13.60;89.00;;;;;;6284425;22;20023;-75
2021/09/14 03:01:36;;;;;;;8.20;3.67;;;13.60;89.10;;;;;;6275359;22;20034;-75
2021/09/14 03:04:08;;;;;;;8.43;4.23;;;13.50;89.20;;;;;;6282561;22;20323;-76
2021/09/14 03:06:36;;;;;;;7.57;4.20;;;13.50;89.20;;;;;;6283206;22;20448;-75
2021/09/14 03:09:13;;;;;;;10.02;4.20;;;13.40;89.50;;;;;;6280937;22;20027;-75
2021/09/14 03:11:41;;;;;;;8.65;4.28;;;13.40;89.50;;;;;;6309326;22;20118;-74
2021/09/14 03:14:12;;;;;;;;;;;13.30;89.60;;;;;;6284005;22;20278;-75
2021/09/14 03:16:40;;;;;;;7.50;3.65;;;13.30;89.60;;;;;;6282685;22;19945;-75
2021/09/14 03:19:07;;;;;;;8.50;3.95;;;13.30;89.60;;;;;;6284089;22;20075;-75
2021/09/14 03:21:35;;;;;;;6.20;3.65;;;13.20;89.70;;;;;;6282591;22;20263;-74
2021/09/14 03:24:06;;;;;;;7.78;3.33;;;13.20;89.70;;;;;;6281984;22;20080;-74
2021/09/14 03:26:33;;;;;;;5.75;3.22;;;13.20;89.70;;;;;;6282288;22;20027;-74
2021/09/14 03:29:01;;;;;;;9.27;3.83;;;13.10;89.60;;;;;;6284425;22;20015;-74
2021/09/14 03:31:36;;;;;;;8.93;4.00;;;13.10;89.60;;;;;;6283033;22;20030;-75
2021/09/14 03:34:03;;;;;;;8.25;3.85;;;13.10;89.70;;;;;;6284212;22;20023;-74
2021/09/14 03:36:30;;;;;;;7.72;4.57;;;13.10;89.80;;;;;;6311655;22;20034;-74
2021/09/14 03:38:59;;;;;;;7.38;3.50;;;13.10;89.90;;;;;;6310921;22;20050;-74
2021/09/14 03:41:26;;;;;;;6.47;3.35;;;13.10;89.80;;;;;;6311764;22;20230;-74
2021/09/14 03:43:54;;;;;;;6.60;3.55;;;13.00;89.90;;;;;;6313053;22;20042;-75
2021/09/14 03:46:23;;;;;;;10.40;4.30;;;13.00;89.90;;;;;;6287693;22;20027;-74
2021/09/14 03:48:52;;;;;;;6.32;3.78;;;12.90;89.90;;;;;;6284380;22;20623;-73
2021/09/14 03:51:21;;;;;;;8.75;3.72;;;12.90;90.00;;;;;;6284868;22;20164;-76
2021/09/14 03:53:49;;;;;;;8.18;4.15;;;13.10;89.90;;;;;;6283930;22;20038;-75
2021/09/14 03:56:16;;;;;;;6.65;3.67;;;13.10;89.80;;;;;;6314108;22;20016;-74
2021/09/14 03:58:44;;;;;;;8.20;3.50;;;13.00;89.80;;;;;;6284266;22;20081;-74
2021/09/14 04:01:11;;;;;;;5.03;3.13;;;13.00;89.90;;;;;;6280054;22;20078;-75
2021/09/14 04:03:43;;;;;;;6.53;3.67;;;13.00;89.90;;;;;;6284330;22;20027;-74
2021/09/14 04:09:05;;;;;;;7.15;4.18;;;13.10;90.10;;;;;;6264196;22;20026;-74
2021/09/14 04:11:38;;;;;;;9.32;4.53;;;13.10;90.10;;;;;;6286929;22;20027;-74
2021/09/14 04:14:05;;;;;;;10.27;3.80;;;13.10;90.00;;;;;;6287961;22;20022;-75
2021/09/14 04:16:33;;;;;;;8.20;3.90;;;13.10;90.10;;;;;;6314044;22;20066;-74
2021/09/14 04:19:01;;;;;;;6.18;3.67;;;13.10;89.90;;;;;;6286908;22;20206;-75
2021/09/14 04:21:32;;;;;;;6.78;3.78;;;13.10;89.90;;;;;;6284117;22;20027;-74
2021/09/14 04:23:59;;;;;;;9.60;4.80;;;13.10;90.00;;;;;;6286794;22;20023;-74
2021/09/14 04:26:34;;;;;;;6.75;3.75;;;13.10;90.10;;;;;;6286595;22;20094;-73
2021/09/14 04:29:01;;;;;;;7.70;3.53;;;13.10;90.00;;;;;;6311006;22;20023;-75
2021/09/14 04:31:28;;;;;;;6.93;3.92;;;13.10;90.00;;;;;;6284718;22;20110;-74
2021/09/14 04:33:56;;;;;;;10.63;5.07;;;13.10;90.00;;;;;;6285492;22;20027;-74
2021/09/14 04:36:24;;;;;;;8.02;3.88;;;13.10;89.90;;;;;;6287008;22;20085;-74
2021/09/14 04:38:53;;;;;;;7.85;4.30;;;13.10;89.90;;;;;;6284904;22;20070;-75
2021/09/14 04:41:20;;;;;;;7.70;4.72;;;13.10;90.00;;;;;;6312793;22;20110;-74
2021/09/14 04:43:47;;;;;;;6.97;4.07;;;13.10;90.00;;;;;;6284681;22;20061;-74
2021/09/14 04:46:15;;;;;;;6.55;3.88;;;13.10;90.00;;;;;;6312926;22;20011;-76
2021/09/14 04:48:43;;;;;;;7.75;4.30;;;13.10;90.00;;;;;;6284522;22;20034;-74
2021/09/14 04:51:11;;;;;;;7.18;3.85;;;13.10;89.80;;;;;;6284925;22;20023;-75
2021/09/14 04:53:41;;;;;;;9.48;4.13;;;13.10;89.90;;;;;;6284724;22;20081;-75
2021/09/14 04:56:11;;;;;;;6.60;3.75;;;13.10;90.00;;;;;;6282753;22;20303;-75
2021/09/14 04:58:41;;;;;;;8.45;4.07;;;13.00;90.00;;;;;;6283946;22;20031;-74
2021/09/14 05:01:10;;;;;;;10.77;4.65;;;13.00;90.00;;;;;;6280195;22;20023;-74
2021/09/14 05:03:44;;;;;;;10.80;4.68;;;13.00;90.00;;;;;;6284373;22;20023;-74
2021/09/14 05:06:12;;;;;;;8.70;4.47;;;13.00;90.10;;;;;;6284165;22;20019;-75
2021/09/14 05:08:39;;;;;;;8.02;4.70;;;13.10;89.90;;;;;;6312523;22;20280;-75
2021/09/14 05:11:08;;;;;;;10.52;4.50;;;13.00;90.00;;;;;;6282313;22;20261;-75
2021/09/14 05:13:38;;;;;;;8.65;4.75;;;13.00;90.00;;;;;;6284413;22;20015;-76
2021/09/14 05:16:05;;;;;;;7.85;4.15;;;13.00;90.00;;;;;;6283692;22;20242;-75
2021/09/14 05:18:52;;;;;;;9.88;4.10;;;13.10;89.80;;;;;;6311097;22;20268;-73
2021/09/14 05:21:19;;;;;;;9.48;4.18;;;13.10;89.70;;;;;;6286912;22;20030;-73
2021/09/14 05:23:48;;;;;;;10.25;4.28;;;13.10;89.80;;;;;;6287562;22;20031;-75
2021/09/14 05:26:15;;;;;;;9.93;4.60;;;13.10;89.90;;;;;;6288385;22;20015;-74
2021/09/14 05:28:44;;;;;;;9.82;4.28;;;13.10;89.60;;;;;;6289558;22;20333;-74
2021/09/14 05:31:13;;;;;;;10.57;5.10;;;13.20;89.60;;;;;;6313928;22;20034;-75
2021/09/14 05:33:45;;;;;;;8.82;4.88;;;13.10;89.60;;;;;;6288361;22;20310;-75
2021/09/14 05:36:13;;;;;;;10.60;4.88;;;13.20;89.50;;;;;;6288521;22;20074;-75
2021/09/14 05:38:42;;;;;;;8.57;5.03;;;13.30;89.40;;;;;;6285955;22;20015;-75
2021/09/14 05:41:09;;;;;;;8.35;4.07;;;13.30;89.20;;;;;;6288708;22;20015;-74
2021/09/14 05:43:37;;;;;;;8.32;4.38;;;13.20;89.10;;;;;;6289459;22;20053;-74
2021/09/14 05:46:06;;;;;;;7.43;4.47;;;13.30;89.10;;;;;;6281766;22;20082;-75
2021/09/14 05:48:37;;;;;;;7.95;4.40;;;13.30;89.10;;;;;;6281419;22;20035;-75
2021/09/14 05:51:05;;;;;;;7.70;5.35;;;13.40;88.90;;;;;;6276963;22;20046;-74
2021/09/14 05:53:39;;;;;;;7.28;4.38;;;13.50;88.60;;;;;;6280646;22;20027;-73
2021/09/14 05:56:07;;;;;;;7.63;4.40;;;13.50;88.40;;;;;;6283181;22;20065;-75
2021/09/14 05:58:34;;;;;;;9.85;4.35;;;13.60;88.60;;;;;;6280835;22;20330;-74
2021/09/14 06:01:02;;;;;;;9.48;4.72;;;13.60;88.30;;;;;;6279197;22;20035;-73
2021/09/14 06:03:33;;;;;;;11.88;4.50;;;13.60;88.20;;;;;;6278717;22;20027;-73
2021/09/14 06:06:05;;;;;;;8.07;4.60;;;13.70;88.00;;;;;;6278466;22;20028;-73
2021/09/14 06:08:34;;;;;;;7.07;3.90;;;13.70;88.10;;;;;;6282699;22;20073;-73
2021/09/14 06:11:01;;;;;;;8.48;4.70;;;13.70;87.90;;;;;;6282302;22;20053;-73
2021/09/14 06:13:29;;;;;;;8.23;4.72;;;13.80;88.00;;;;;;6281936;22;20034;-74
2021/09/14 06:15:57;;;;;;;9.05;4.28;;;13.90;87.90;;;;;;6281852;22;20081;-76
2021/09/14 06:18:26;;;;;;;8.80;4.78;;;13.90;87.80;;;;;;6255332;22;20203;-74
2021/09/14 06:20:56;;;;;;;9.30;4.88;;;14.00;87.60;;;;;;6281814;22;20019;-76
2021/09/14 06:23:25;;;;;;;9.15;4.47;;;14.10;87.50;;;;;;6280063;22;20027;-74
2021/09/14 06:25:55;;;;;;;14.07;4.63;;;14.10;87.40;;;;;;6280285;22;20016;-73
2021/09/14 06:28:25;;;;;;;9.25;5.13;;;14.10;87.40;;;;;;6255643;22;20019;-74
2021/09/14 06:30:52;;;;;;;10.13;4.95;;;14.20;87.30;;;;;;6281193;22;20035;-74
2021/09/14 06:33:24;;;;;;;8.50;4.47;;;14.30;87.10;;;;;;6281192;22;20032;-72
2021/09/14 06:35:56;;;;;;;8.73;4.57;;;14.40;87.00;;;;;;6281028;22;20331;-74
2021/09/14 06:38:29;;;;;;;11.82;4.88;;;14.60;86.70;;;;;;6279993;22;20022;-74
2021/09/14 06:40:57;;;;;;;9.00;4.82;;;14.60;86.40;;;;;;6279846;22;20034;-74
2021/09/14 06:43:29;;;;;;;9.45;4.80;;;14.70;86.20;;;;;;6280982;22;20215;-74
2021/09/14 06:46:15;;;;;;;9.65;5.38;;;14.80;86.00;;;;;;6306052;22;20027;-75
2021/09/14 06:48:49;;;;;;;10.25;4.53;;;14.90;85.50;;;;;;6286658;22;20047;-74
2021/09/14 06:51:17;;;;;;;6.40;3.90;;;15.00;85.30;;;;;;6312960;22;20081;-75
2021/09/14 06:53:45;;;;;;;6.55;4.10;;;15.10;85.30;;;;;;6315118;22;20554;-73
2021/09/14 06:56:12;;;;;;;10.02;4.72;;;15.20;84.60;;;;;;6316120;22;20030;-74
2021/09/14 06:58:42;;;;;;;10.40;4.68;;;15.20;84.80;;;;;;6286871;22;20027;-74
2021/09/14 07:01:09;;;;;;;13.10;5.20;;;15.40;84.80;;;;;;6310516;22;20019;-75
2021/09/14 07:03:36;;;;;;;7.45;3.97;;;15.60;83.70;;;;;;6314554;22;20087;-73
2021/09/14 07:06:04;;;;;;;6.47;3.92;;;15.90;83.30;;;;;;6315873;22;20083;-75
2021/09/14 07:08:36;;;;;;;8.43;4.15;;;16.00;83.00;;;;;;6315636;22;20027;-74
2021/09/14 07:11:05;;;;;;;7.10;4.25;;;16.10;83.20;;;;;;6314463;22;20354;-74
2021/09/14 07:13:33;;;;;;;8.32;4.55;;;16.40;82.70;;;;;;6313377;22;20019;-73
2021/09/14 07:16:00;;;;;;;8.48;4.30;;;16.60;81.60;;;;;;6314429;22;20030;-73
2021/09/14 07:18:33;;;;;;;7.27;3.97;;;16.90;81.00;;;;;;6314873;22;20065;-73
2021/09/14 07:21:00;;;;;;;9.10;4.45;;;17.10;80.60;;;;;;6315342;22;20031;-73
2021/09/14 07:23:28;;;;;;;11.07;4.00;;;17.10;80.10;;;;;;6287731;22;20047;-73
2021/09/14 07:25:57;;;;;;;6.55;3.83;;;17.20;80.50;;;;;;6315401;22;20022;-72
2021/09/14 07:28:24;;;;;;;5.60;3.00;;;17.30;79.60;;;;;;6286454;22;20218;-73
2021/09/14 07:30:52;;;;;;;6.85;3.92;;;17.40;79.60;;;;;;6315215;22;20073;-73
2021/09/14 07:33:19;;;;;;;6.63;3.53;;;17.50;79.50;;;;;;6313835;22;20045;-73
2021/09/14 07:35:46;;;;;;;6.35;3.30;;;17.60;78.90;;;;;;6313223;22;20019;-74
2021/09/14 07:38:14;;;;;;;8.75;3.47;;;17.70;78.30;;;;;;6313695;22;20030;-73
2021/09/14 07:40:41;;;;;;;5.25;2.95;;;17.80;78.10;;;;;;6285355;22;20348;-72
2021/09/14 07:43:10;;;;;;;5.82;2.83;;;18.00;77.60;;;;;;6314510;22;20015;-73
2021/09/14 07:45:37;;;;;;;5.07;2.97;;;18.10;77.80;;;;;;6315506;22;20046;-73
2021/09/14 07:48:05;;;;;;;6.63;3.05;;;18.20;77.70;;;;;;6286217;22;20090;-73
2021/09/14 07:50:33;;;;;;;6.97;2.85;;;18.20;77.50;;;;;;6313510;22;20414;-73
2021/09/14 07:53:00;;;;;;;5.55;2.95;;;18.30;78.00;;;;;;6287804;22;20238;-71
2021/09/14 07:55:28;;;;;;;5.70;2.95;;;18.50;76.90;;;;;;6314288;22;20314;-73
2021/09/14 07:57:56;;;;;;;7.63;3.20;;;18.70;77.20;;;;;;6313411;22;20023;-73
2021/09/14 08:00:24;;;;;;;6.22;3.58;;;18.90;76.40;;;;;;6284285;22;20057;-72
2021/09/14 08:02:55;;;;;;;7.93;2.95;;;19.10;75.30;;;;;;6315170;22;20110;-73
2021/09/14 08:05:23;;;;;;;11.45;3.78;;;19.30;74.80;;;;;;6288161;22;20027;-73
2021/09/14 08:07:51;;;;;;;8.38;2.67;;;19.40;74.00;;;;;;6314156;22;20050;-73
2021/09/14 08:10:19;;;;;;;5.63;2.97;;;19.50;73.70;;;;;;6314449;22;20023;-73
2021/09/14 08:12:49;;;;;;;5.05;2.53;;;19.60;73.50;;;;;;6286639;22;20092;-73
2021/09/14 08:15:17;;;;;;;5.68;2.83;;;19.80;73.50;;;;;;6315509;22;20019;-73
2021/09/14 08:17:45;;;;;;;7.97;3.55;;;19.80;72.70;;;;;;6314356;22;20034;-73
2021/09/14 08:20:13;;;;;;;7.97;3.53;;;20.00;72.70;;;;;;6285526;22;20093;-73
2021/09/14 08:22:40;;;;;;;3.45;2.40;;;20.20;71.70;;;;;;6312572;22;20027;-72
2021/09/14 08:25:09;;;;;;;13.85;3.40;;;20.30;71.30;;;;;;6314191;22;20384;-73
2021/09/14 08:27:37;;;;;;;5.55;2.28;;;20.50;71.40;;;;;;6313574;22;20019;-72
2021/09/14 08:30:06;;;;;;;4.88;2.60;;;20.50;70.50;;;;;;6288302;22;20242;-72
2021/09/14 08:32:33;;;;;;;4.45;2.60;;;20.60;71.00;;;;;;6314132;22;20259;-73
2021/09/14 08:35:02;;;;;;;4.93;2.65;;;20.60;71.10;;;;;;6316961;22;20037;-73
2021/09/14 08:37:31;;;;;;;6.82;2.38;;;20.80;70.10;;;;;;6316397;22;20344;-74
2021/09/14 08:39:59;;;;;;;3.92;2.30;;;21.10;68.80;;;;;;6314907;22;20015;-72
2021/09/14 08:42:27;;;;;;;6.00;2.45;;;21.20;68.70;;;;;;6287886;22;20038;-72
2021/09/14 08:44:54;;;;;;;7.40;2.85;;;21.40;67.80;;;;;;6317079;22;20026;-72
2021/09/14 08:47:23;;;;;;;4.97;2.50;;;21.30;67.30;;;;;;6317564;22;20019;-73
2021/09/14 08:49:50;;;;;;;4.72;2.45;;;21.50;68.00;;;;;;6316342;22;20133;-72
2021/09/14 08:52:19;;;;;;;5.57;2.40;;;21.70;67.30;;;;;;6316667;22;20330;-72
2021/09/14 08:54:46;;;;;;;5.68;2.63;;;21.90;67.20;;;;;;6315729;22;20057;-72
2021/09/14 08:57:15;;;;;;;6.00;3.20;;;22.10;66.40;;;;;;6290145;22;20027;-72
2021/09/14 08:59:46;;;;;;;4.45;2.53;;;22.10;66.80;;;;;;6316747;22;20027;-72
2021/09/14 09:02:16;;;;;;;8.43;3.00;;;22.10;66.20;;;;;;6312506;22;20352;-72
2021/09/14 09:04:55;;;;;;;5.18;2.50;;;22.50;66.20;;;;;;6288978;22;20075;-72
2021/09/14 09:07:34;;;;;;;5.10;2.85;;;22.80;65.10;;;;;;6289751;22;20007;-72
2021/09/14 09:10:16;;;;;;;6.38;2.80;;;23.00;63.70;;;;;;6315813;22;20035;-72
2021/09/14 09:12:45;;;;;;;10.93;3.67;;;23.30;63.80;;;;;;6316717;22;20073;-73
2021/09/14 09:15:23;;;;;;;8.50;2.77;;;23.60;62.90;;;;;;6290183;22;20038;-74
2021/09/14 09:18:04;;;;;;;6.07;2.97;;;23.80;62.20;;;;;;6316457;22;20425;-74
2021/09/14 09:20:32;;;;;;;4.75;2.40;;;24.00;61.20;;;;;;6316480;22;20023;-74
2021/09/14 09:23:02;;;;;;;11.00;4.50;;;24.20;60.30;;;;;;6316591;22;20023;-74
2021/09/14 09:25:30;;;;;;;10.20;2.90;;;24.50;60.10;;;;;;6316270;22;20021;-74
2021/09/14 09:28:10;;;;;;;6.90;2.95;;;24.80;59.90;;;;;;6317972;22;20023;-74
2021/09/14 09:30:37;;;;;;;;;;;24.60;58.90;;;;;;6289620;22;20082;-73
2021/09/14 09:33:07;;;;;;;11.18;5.00;;;24.90;58.80;;;;;;6315986;22;19918;-75
2021/09/14 09:35:37;;;;;;;6.90;3.13;;;25.50;57.30;;;;;;6286888;22;20022;-74
2021/09/14 09:38:06;;;;;;;9.65;2.78;;;25.90;56.60;;;;;;6314910;22;20073;-74
2021/09/14 09:40:35;;;;;;;6.15;3.13;;;26.40;55.10;;;;;;6287711;22;20029;-74
2021/09/14 09:43:07;;;;;;;4.63;2.60;;;26.90;53.30;;;;;;6288083;22;20023;-74
2021/09/14 09:45:40;;;;;;;5.80;2.70;;;27.70;51.00;;;;;;6286822;22;20023;-73
2021/09/14 09:48:08;;;;;;;5.60;2.47;;;28.20;49.70;;;;;;6315756;22;20022;-74
2021/09/14 09:50:36;;;;;;;5.55;2.22;;;28.70;48.40;;;;;;6313879;22;20330;-74
2021/09/14 09:53:05;;;;;;;4.55;2.35;;;28.80;48.20;;;;;;6312843;22;20011;-74
2021/09/14 09:55:34;;;;;;;4.78;2.80;;;29.00;48.10;;;;;;6315064;22;20031;-73
2021/09/14 09:58:05;;;;;;;3.30;2.28;;;30.00;45.70;;;;;;6315423;22;20011;-73
2021/09/14 10:00:34;;;;;;;4.47;2.35;;;30.60;43.40;;;;;;6309350;22;20299;-73
2021/09/14 10:03:06;;;;;;;9.18;2.65;;;31.00;43.30;;;;;;6314356;22;20333;-73
2021/09/14 10:05:36;;;;;;;4.55;2.42;;;31.00;42.70;;;;;;6314092;22;20027;-72
2021/09/14 10:08:09;;;;;;;5.32;2.88;;;30.60;43.60;;;;;;6289819;22;20069;-75
2021/09/14 10:10:37;;;;;;;5.07;2.63;;;30.60;43.10;;;;;;6315888;22;20191;-73
2021/09/14 10:13:05;;;;;;;4.13;2.33;;;30.20;44.50;;;;;;6315975;22;20062;-73
2021/09/14 10:15:40;;;;;;;5.32;2.60;;;30.80;43.20;;;;;;6315840;22;20361;-73
2021/09/14 10:18:08;;;;;;;3.75;2.53;;;30.80;43.00;;;;;;6318194;22;20015;-73
2021/09/14 10:20:40;;;;;;;4.78;2.55;;;30.60;44.10;;;;;;6325341;22;20026;-74
2021/09/14 10:23:16;;;;;;;4.53;2.25;;;30.60;43.80;;;;;;6318653;22;20015;-74
2021/09/14 10:25:51;;;;;;;4.53;2.20;;;30.50;43.90;;;;;;6315917;22;20042;-73
2021/09/14 10:28:22;;;;;;;5.60;2.53;;;31.00;43.00;;;;;;6315967;22;20065;-74
2021/09/14 10:30:50;;;;;;;7.90;2.90;;;31.80;41.50;;;;;;6315872;22;20315;-73
2021/09/14 10:33:40;;;;;;;7.68;2.50;;;31.90;40.50;;;;;;5128072;27;20541;-73
2021/09/14 10:36:14;;;;;;;3.38;1.90;;;32.00;40.60;;;;;;5131652;27;20111;-73
2021/09/14 10:38:49;;;;;;;5.28;2.58;;;31.90;41.70;;;;;;5130862;27;20055;-73
2021/09/14 10:41:18;;;;;;;3.80;2.30;;;31.80;41.50;;;;;;5121652;28;20059;-73
2021/09/14 10:43:57;;;;;;;4.25;2.50;;;32.20;40.80;;;;;;5119376;28;20085;-74
2021/09/14 10:46:25;;;;;;;4.38;2.35;;;32.60;39.80;;;;;;5119203;28;20246;-72
2021/09/14 10:48:54;;;;;;;5.95;2.50;;;32.60;40.30;;;;;;5118179;28;20093;-73
2021/09/14 10:51:21;;;;;;;5.20;2.47;;;32.20;40.30;;;;;;5118122;28;20115;-74
2021/09/14 10:53:56;;;;;;;5.75;2.45;;;31.60;41.70;;;;;;5111707;28;21336;-73
2021/09/14 10:56:25;;;;;;;3.67;2.30;;;31.50;42.20;;;;;;5114870;28;20051;-73
2021/09/14 10:58:53;;;;;;;6.47;2.53;;;32.80;40.30;;;;;;5118071;28;20059;-73
2021/09/14 11:01:24;;;;;;;7.00;2.45;;;33.40;39.00;;;;;;5113547;28;20088;-74
2021/09/14 11:04:05;;;;;;;4.68;2.53;;;34.50;36.80;;;;;;5117776;28;20039;-73
2021/09/14 11:06:33;;;;;;;4.00;2.50;;;34.80;36.10;;;;;;5114746;28;20372;-72
2021/09/14 11:09:02;;;;;;;5.17;2.70;;;35.00;35.30;;;;;;5116954;28;20107;-73
2021/09/14 11:11:29;;;;;;;4.13;2.10;;;34.50;36.90;;;;;;5115693;28;20409;-72
2021/09/14 11:13:57;;;;;;;3.95;2.38;;;35.80;34.50;;;;;;5116729;28;20340;-71
2021/09/14 11:16:24;;;;;;;3.90;2.22;;;36.00;34.30;;;;;;5111654;28;20043;-73
2021/09/14 11:18:58;;;;;;;4.00;2.40;;;35.40;35.30;;;;;;5116090;28;20176;-73
2021/09/14 11:21:25;;;;;;;6.88;2.53;;;36.80;33.10;;;;;;5114555;28;20289;-73
2021/09/14 11:23:53;;;;;;;3.95;2.30;;;35.80;34.00;;;;;;5115847;28;20047;-73
2021/09/14 11:26:21;;;;;;;4.75;2.58;;;34.50;36.70;;;;;;5115833;28;20051;-72
2021/09/14 11:28:56;;;;;;;7.43;2.50;;;34.90;36.00;;;;;;5117025;28;20044;-73
2021/09/14 11:31:26;;;;;;;4.80;2.22;;;34.90;35.40;;;;;;5116609;28;20109;-74
2021/09/14 11:33:55;;;;;;;7.90;2.50;;;36.40;33.90;;;;;;5116873;28;20081;-73
2021/09/14 11:36:23;;;;;;;4.45;2.30;;;37.70;32.00;;;;;;5117074;28;20335;-73
2021/09/14 11:38:59;;;;;;;7.10;2.30;;;37.80;30.90;;;;;;5115823;28;20052;-74
2021/09/14 11:41:32;;;;;;;3.60;2.28;;;37.30;32.20;;;;;;5116055;28;20047;-74
2021/09/14 11:44:00;;;;;;;6.15;2.53;;;38.50;30.40;;;;;;5106583;28;20048;-73
2021/09/14 11:46:27;;;;;;;4.07;2.40;;;37.90;31.10;;;;;;5101929;28;20050;-73
2021/09/14 11:48:58;;;;;;;5.60;2.38;;;37.80;31.10;;;;;;5103141;28;20044;-73
2021/09/14 11:51:28;;;;;;;3.38;2.28;;;39.40;29.30;;;;;;5097408;28;20063;-74
2021/09/14 11:53:55;;;;;;;3.63;2.08;;;37.30;31.10;;;;;;5103450;28;20085;-73
2021/09/14 11:56:27;;;;;;;2.97;1.90;;;37.50;31.30;;;;;;5098076;28;20054;-72
2021/09/14 11:58:54;;;;;;;4.55;2.30;;;37.60;31.20;;;;;;5102891;28;20040;-73
2021/09/14 12:01:29;;;;;;;4.50;2.13;;;38.10;30.70;;;;;;5100354;28;20059;-74
2021/09/14 12:03:58;;;;;;;4.20;2.60;;;39.60;28.90;;;;;;5102719;28;20048;-74
2021/09/14 12:06:27;;;;;;;4.32;2.65;;;40.00;29.10;;;;;;5102254;28;20043;-74
2021/09/14 12:08:57;;;;;;;3.92;2.20;;;40.90;26.80;;;;;;5102285;28;20044;-74
2021/09/14 12:11:27;;;;;;;5.00;3.20;;;41.30;26.80;;;;;;5102256;28;20218;-73
2021/09/14 12:13:56;;;;;;;3.28;2.10;;;40.40;27.30;;;;;;5101960;28;20089;-74
2021/09/14 12:16:27;;;;;;;4.25;2.10;;;40.00;28.00;;;;;;5101820;28;20060;-73
2021/09/14 12:18:55;;;;;;;3.17;2.00;;;41.40;26.30;;;;;;5102278;28;20043;-72
2021/09/14 12:21:24;;;;;;;4.60;2.53;;;40.20;27.00;;;;;;5098971;28;20078;-74
2021/09/14 12:23:51;;;;;;;3.60;2.08;;;39.70;28.00;;;;;;5095321;28;20041;-72
2021/09/14 12:26:20;;;;;;;5.40;2.25;;;40.50;27.10;;;;;;5088741;28;20140;-73
2021/09/14 12:28:49;;;;;;;6.05;2.35;;;40.00;27.70;;;;;;5101317;28;20268;-74
2021/09/14 12:31:16;;;;;;;4.57;1.98;;;40.70;26.60;;;;;;5100893;28;20052;-73
2021/09/14 12:33:43;;;;;;;3.67;2.17;;;39.60;27.90;;;;;;5090446;28;20051;-71
2021/09/14 12:36:11;;;;;;;3.55;2.00;;;39.70;27.40;;;;;;5100825;28;20605;-73
2021/09/14 12:38:40;;;;;;;4.13;2.00;;;40.30;27.20;;;;;;5101797;28;20111;-73
2021/09/14 12:41:08;;;;;;;4.22;1.95;;;40.10;27.60;;;;;;5095746;28;20103;-73
2021/09/14 12:43:35;;;;;;;;;;;39.00;28.80;;;;;;5101333;28;20067;-73
2021/09/14 12:46:04;;;;;;;3.58;2.00;;;39.50;27.80;;;;;;5100327;28;20006;-74
2021/09/14 12:48:31;;;;;;;4.97;1.80;;;38.50;28.00;;;;;;5085925;28;20047;-72
2021/09/14 12:51:00;;;;;;;4.10;2.17;;;36.90;30.60;;;;;;5098977;28;20044;-72
2021/09/14 12:53:28;;;;;;;4.32;2.22;;;37.80;30.40;;;;;;5096449;28;20135;-73
2021/09/14 12:55:57;;;;;;;3.90;1.70;;;38.70;28.40;;;;;;5098952;28;20052;-73
2021/09/14 12:58:24;;;;;;;3.65;2.00;;;38.70;28.50;;;;;;5097289;28;20062;-72
2021/09/14 13:00:52;;;;;;;4.63;1.90;;;38.30;28.40;;;;;;5091158;28;20051;-74
2021/09/14 13:03:19;;;;;;;6.07;1.90;;;38.00;29.80;;;;;;5095678;28;20466;-73
2021/09/14 13:05:46;;;;;;;3.05;1.90;;;36.40;31.30;;;;;;5098970;28;20383;-72
2021/09/14 13:08:13;;;;;;;6.32;1.55;;;34.60;34.40;;;;;;5100917;28;20235;-74
2021/09/14 13:10:41;;;;;;;2.90;1.70;;;34.40;33.80;;;;;;5098528;28;20039;-73
2021/09/14 13:16:13;;;;;;;3.95;2.03;;;34.70;33.40;;;;;;5098319;28;20048;-73
2021/09/14 13:18:41;;;;;;;2.95;1.58;;;35.70;31.60;;;;;;5100350;28;20040;-73
2021/09/14 13:21:09;;;;;;;3.60;2.00;;;36.10;30.70;;;;;;5097343;28;20036;-72
2021/09/14 13:23:37;;;;;;;3.00;1.67;;;37.70;29.20;;;;;;5088446;28;20109;-72
2021/09/14 13:26:06;;;;;;;2.85;1.75;;;37.80;29.20;;;;;;5077960;28;20043;-72
2021/09/14 13:28:35;;;;;;;3.10;1.50;;;37.50;28.40;;;;;;5086959;28;20144;-74
2021/09/14 13:31:02;;;;;;;3.83;1.60;;;38.40;27.60;;;;;;5099235;28;20082;-72
2021/09/14 13:33:30;;;;;;;2.53;1.50;;;40.00;24.50;;;;;;5105824;28;20067;-72
2021/09/14 13:35:58;;;;;;;5.60;1.98;;;38.10;27.00;;;;;;5108418;28;20044;-71
2021/09/14 13:38:27;;;;;;;4.00;1.23;;;38.90;26.80;;;;;;5101175;28;20047;-72
2021/09/14 13:40:58;;;;;;;2.63;1.42;;;38.50;25.90;;;;;;5103308;28;20056;-72
2021/09/14 13:43:37;;;;;;;2.17;1.35;;;36.70;28.30;;;;;;5102689;28;20044;-73
2021/09/14 13:46:12;;;;;;;3.30;1.80;;;35.70;29.10;;;;;;5102007;28;20085;-73
2021/09/14 13:48:41;;;;;;;3.50;1.55;;;36.00;29.90;;;;;;5096276;28;20070;-72